METAR Data
IDs: Format: Raw Decoded Include TAF

Data at: 0238 UTC 18 Jun 2019

PASH 180156Z AUTO 35015KT 6SM HZ CLR 10/07 A2980 RMK AO2 SLP093 T01000072
PASH 180056Z AUTO 34017KT 7SM CLR 10/07 A2981 RMK AO2 SLP097 T01000072
PASH 172356Z AUTO 35015KT 7SM CLR 11/08 A2983 RMK AO2 SLP101 T01060078 10106 20100 58007
PASH 172256Z AUTO 35015KT 8SM CLR 11/08 A2983 RMK AO2 SLP102 T01060078
PASH 172156Z AUTO 36014KT 7SM CLR 11/08 A2985 RMK AO2 SLP108 T01060078
PASH 172056Z AUTO 35013KT 8SM CLR 10/08 A2985 RMK AO2 SLP108 T01000078 56008
PASH 171956Z AUTO 35014KT 7SM CLR 10/08 A2986 RMK AO2 SLP111 T01000078
PASH 171856Z AUTO 35013KT 8SM CLR 10/08 A2986 RMK AO2 SLP113 T01000083
PASH 171756Z AUTO 35010KT 6SM BR CLR 10/08 A2987 RMK AO2 SLP116 T01000083 10106 20100 53001
PASH 171656Z AUTO 36011KT 7SM CLR 11/08 A2987 RMK AO2 SLP116 T01060083
PASH 171556Z AUTO 36010KT 6SM BR CLR 10/08 A2987 RMK AO2 SLP115 T01000083
PASH 171456Z AUTO 35007KT 5SM BR CLR 10/08 A2987 RMK AO2 SLP115 T01000078 56005
PASH 171356Z AUTO 33008KT 6SM BR CLR 10/08 A2987 RMK AO2 SLP117 T01000078
PASH 171256Z AUTO 32009KT 6SM BR CLR 10/08 A2988 RMK AO2 SLP119 T01000078
PASH 171156Z AUTO 32009KT 6SM HZ CLR 10/07 A2988 RMK AO2 SLP121 T01000072 10106 20100 50000
PASH 171056Z AUTO 32006KT 4SM HZ CLR 10/07 A2989 RMK AO2 SLP122 T01000072
PASH 170956Z AUTO 33008KT 6SM BR CLR 10/08 A2989 RMK AO2 SLP123 T01000078
PASH 170856Z AUTO 33013KT 6SM HZ CLR 11/08 A2988 RMK AO2 SLP121 T01060078 401330100 58003
PASH 170756Z AUTO 33013KT 7SM CLR 11/07 A2989 RMK AO2 SLP122 T01060072
PASH 170656Z AUTO 33016KT 9SM CLR 11/07 A2989 RMK AO2 SLP124 T01060067
PASH 170556Z AUTO 33015KT 9SM CLR 11/07 A2989 RMK AO2 SLP123 T01060072 10117 20106 56008
PASH 170456Z AUTO 32015KT 10SM CLR 11/07 A2990 RMK AO2 SLP126 T01110072
PASH 170356Z AUTO 33014KT 10SM CLR 11/08 A2991 RMK AO2 SLP129 T01110078